METAR Data
IDs: Format: Raw Decoded Include TAF

Data at: 1949 UTC 18 Apr 2021

ULAA 181930Z 13001MPS CAVOK M02/M09 Q1036 R08/CLRD70 NOSIG RMK QFE776/1035